Terminal Aerodrome Forecast
Issued by NWS Hastings, NE

Home | Current Version | Previous Version | Text Only | Print | Product List | Glossary On
Versions: 1 2 3 4 5 6 7 8 9 10 11 12 13 14 15
564
FTUS45 KGID 201738
TAFEAR
TAF
KEAR 201738Z 2018/2118 16024G34KT P6SM FEW250
     FM210300 16025G35KT P6SM SCT200 WS010/18045KT
     FM211000 18018G25KT P6SM SCT250 WS010/20045KT
     FM211200 21015G23KT P6SM SCT100 WS010/22035KT
     FM211300 23014G22KT P6SM SCT100
     FM211400 31014G23KT P6SM SCT100
     FM211700 33017G26KT P6SM BKN090=

USA.gov is the U.S. government's official web portal to all federal, state and local government web resources and services.